Ana Sayfa
METAR-TAF:

METAR-TAF

Havaalanları :

Wichita Falls Municipal Airport / Sheppard Air Force Base

Wichita Falls, Teksas, Amerika Birleşik Devletleri

Enlem: 33-58-43N, Boylam: 098-29-34W, yükseklik: 309 m

Güncel hava durumu gözlemi

Rapor saat 21:52 UTC de 1 saat ve 6 dakika önce yapıldı.
Rüzgar güneybatıdan 18 kt ve 30 kt'a kadar ani rüzgarlar
Sıcaklık 26°C
Nem 28%
Basınç 1000 hPa
Görüş mesafesi: 16.1 km
Açık gökyüzü

METAR: KSPS 212152Z 23018G30KT 10SM CLR 26/06 A2954 RMK AO2 PK WND 23035/2056 SLP993 T02560061

Saat: 17:58 (22:58 UTC)

Tahmin

Rapor saat 17:24 UTC de 5 saat ve 34 dakika önce yapıldı.
Ayın 21'si saat 18 UTC'den ayın 22'si saat 18 UTC'ye kadar geçerli Tahmin
Rüzgar güneybatıdan 26 kt ve 38 kt'a kadar ani rüzgarlar
Görüş mesafesi: 10 km
Açık gökyüzü
Ayın 22'si saat 0100 UTC'den
Rüzgar güneydan 16 kt
Görüş mesafesi: 10 km
Açık gökyüzü

TAF: KSPS 211724Z 2118/2218 22026G38KT P6SM SKC FM220100 18016KT P6SM SKC

4.000'den fazla havaalanı için hava durumu gözlemleri ve tahminleri (METAR ve TAF raporları).

Kullanılabilir istasyonlar harita üzerinde sarı ve kırmızı noktalarla gösterilir.

İstasyonun adını görmek için fareyi noktanın üzerinde gezdirin.

Sonrasında hava gözlem ve tahminlerini görmek için tıklayın.

Haritayı değiştirmek için: yaklaştırmak için siyah artı işaretli yeşil düğmeye ve uzaklaştırmak için de eksi işaretli düğmeye hızla tıklayın; bitişik haritalar için yeşil okları kullanın.


METAR-TAF: